Pazifik — ZDKS7 — position and weather

sailwx.info

Track history (hours):
 
Tides and Currents Weather Stations Pressure Air Temp Water Temp Dewpoint Dewpoint Depression Visibility Wind Speed Wind Dir Waves Ship Positions

Pazifik

Last reported at 2016-May-29 17:23 UTC. Time now 2016-Jun-01 03:46 UTC.
Position N 09°07' W 079°46'.

Length 205 m.

Type: Ship (hazmat cat A). MMSI: 236111796.

Date/timePositionNaut miles runAvg speedWind from/ knotsBaromVisibWave heightAir tempDewpointWater temp
2016-May-29 17:23N 09°07' W 079°46'5 5.3
2016-May-29 16:28N 09°10' W 079°50'7 7.5
2016-May-29 15:33N 09°14' W 079°55'1 0.9
2016-May-29 14:33N 09°15' W 079°55'1 1.2
2016-May-29 13:33N 09°16' W 079°55'0 0.3
2016-May-29 12:33N 09°17' W 079°55'3 3.4
2016-May-29 11:33N 09°20' W 079°55'3 2.5
2016-May-29 10:31N 09°23' W 079°56'0 0.0
2016-May-29 09:32N 09°23' W 079°56'0 0.0
2016-May-29 08:33N 09°23' W 079°56'0 0.0
2016-May-29 07:33N 09°23' W 079°56'0 0.0
2016-May-29 06:33N 09°23' W 079°56'0 0.0
2016-May-29 05:33N 09°23' W 079°56'0 0.0
2016-May-29 04:22N 09°23' W 079°56'0 0.0
2016-May-29 03:33N 09°23' W 079°56'0 0.0
2016-May-29 02:33N 09°23' W 079°56'0 0.0
2016-May-29 01:33N 09°23' W 079°56'0 0.0
2016-May-29 00:33N 09°23' W 079°56'0 0.0
2016-May-28 23:31N 09°23' W 079°56'0 0.0
2016-May-28 22:31N 09°23' W 079°56'0 0.1
2016-May-28 21:33N 09°23' W 079°56'0 0.1
2016-May-28 20:33N 09°23' W 079°56'0 0.1
2016-May-28 19:33N 09°23' W 079°56'0 0.2
2016-May-28 18:33N 09°23' W 079°56'0 0.1
2016-May-28 17:31N 09°23' W 079°56'0 0.0
2016-May-28 16:28N 09°23' W 079°56'0 0.0
2016-May-28 15:33N 09°23' W 079°56'3 2.9
2016-May-28 14:33N 09°25' W 079°55'2 2.3
2016-May-28 13:34N 09°25' W 079°57'1 1.0
2016-May-28 12:33N 09°24' W 079°58'0 0.0
2016-May-28 11:30N 09°24' W 079°58'0 0.0
2016-May-28 10:33N 09°24' W 079°58'0 0.0
2016-May-28 09:33N 09°24' W 079°58'0 0.0
2016-May-28 08:31N 09°24' W 079°58'0 0.0
2016-May-28 07:33N 09°24' W 079°58'0 0.0
2016-May-28 06:31N 09°24' W 079°58'0 0.0
2016-May-28 05:30N 09°24' W 079°58'0 0.0
2016-May-28 04:33N 09°24' W 079°58'0 0.0
2016-May-28 03:31N 09°24' W 079°58'0 0.0
2016-May-28 02:33N 09°24' W 079°58'0 0.0
2016-May-28 01:30N 09°24' W 079°58'0 0.0
2016-May-28 00:24N 09°24' W 079°58'0 0.0
2016-May-27 23:33N 09°24' W 079°58'0 0.0
2016-May-27 22:33N 09°24' W 079°58'0 0.0
2016-May-27 21:31N 09°24' W 079°58'0 0.0
2016-May-27 20:33N 09°24' W 079°58'0 0.1
2016-May-27 19:27N 09°24' W 079°58'0 0.0
2016-May-27 18:33N 09°24' W 079°58'0 0.0
2016-May-27 17:33N 09°24' W 079°58'0 0.0
2016-May-27 16:30N 09°24' W 079°58'0 0.1
2016-May-27 15:33N 09°24' W 079°58'0 0.0
2016-May-27 14:33N 09°24' W 079°58'0 0.0
2016-May-27 13:31N 09°24' W 079°58'0 0.0
2016-May-27 12:33N 09°24' W 079°58'0 0.0
2016-May-27 11:33N 09°24' W 079°58'0 0.0
2016-May-27 10:33N 09°24' W 079°58'0 0.0
2016-May-27 09:27N 09°24' W 079°58'0 0.0
2016-May-27 08:33N 09°24' W 079°58'0 0.0
2016-May-27 07:30N 09°24' W 079°58'0 0.0
2016-May-27 06:27N 09°24' W 079°58'0 0.0
2016-May-27 05:33N 09°24' W 079°58'0 0.0
2016-May-27 04:33N 09°24' W 079°58'0 0.0
2016-May-27 03:33N 09°24' W 079°58'0 0.1
2016-May-27 02:33N 09°24' W 079°58'0 0.1
2016-May-27 01:28N 09°24' W 079°58'0 0.0
2016-May-27 00:33N 09°24' W 079°58'1 1.2
2016-May-26 23:34N 09°25' W 079°58'6 6.0
2016-May-26 22:33N 09°31' W 079°59'1312.9
2016-May-26 21:33N 09°43' W 080°05'  
2016-May-22 21:33N 28°53' W 093°27'3912.6
2016-May-22 18:28N 29°30' W 093°41'1412.0
2016-May-22 17:16N 29°41' W 093°50'9 8.6
2016-May-22 16:15N 29°48' W 093°57'5 6.8
2016-May-22 15:29N 29°53' W 093°55'6 6.6
2016-May-22 14:33N 29°58' W 093°51'6 5.8
2016-May-22 13:33N 30°01' W 093°57'2 2.0
2016-May-22 12:33N 30°01' W 093°60'  
Track history (hours):
 
Tides and Currents Weather Stations Pressure Air Temp Water Temp Dewpoint Dewpoint Depression Visibility Wind Speed Wind Dir Waves Ship Positions

Pazifik

Last reported at 2016-May-29 17:23 UTC. Time now 2016-Jun-01 03:46 UTC.
Position N 09°07' W 079°46'.

Length 205 m.

Type: Ship (hazmat cat A). MMSI: 236111796.

Date/timePositionNaut miles runAvg speedWind from/ knotsBaromVisibWave heightAir tempDewpointWater temp
2016-May-29 17:23N 09°07' W 079°46'5 5.3
2016-May-29 16:28N 09°10' W 079°50'7 7.5
2016-May-29 15:33N 09°14' W 079°55'1 0.9
2016-May-29 14:33N 09°15' W 079°55'1 1.2
2016-May-29 13:33N 09°16' W 079°55'0 0.3
2016-May-29 12:33N 09°17' W 079°55'3 3.4
2016-May-29 11:33N 09°20' W 079°55'3 2.5
2016-May-29 10:31N 09°23' W 079°56'0 0.0
2016-May-29 09:32N 09°23' W 079°56'0 0.0
2016-May-29 08:33N 09°23' W 079°56'0 0.0
2016-May-29 07:33N 09°23' W 079°56'0 0.0
2016-May-29 06:33N 09°23' W 079°56'0 0.0
2016-May-29 05:33N 09°23' W 079°56'0 0.0
2016-May-29 04:22N 09°23' W 079°56'0 0.0
2016-May-29 03:33N 09°23' W 079°56'0 0.0
2016-May-29 02:33N 09°23' W 079°56'0 0.0
2016-May-29 01:33N 09°23' W 079°56'0 0.0
2016-May-29 00:33N 09°23' W 079°56'0 0.0
2016-May-28 23:31N 09°23' W 079°56'0 0.0
2016-May-28 22:31N 09°23' W 079°56'0 0.1
2016-May-28 21:33N 09°23' W 079°56'0 0.1
2016-May-28 20:33N 09°23' W 079°56'0 0.1
2016-May-28 19:33N 09°23' W 079°56'0 0.2
2016-May-28 18:33N 09°23' W 079°56'0 0.1
2016-May-28 17:31N 09°23' W 079°56'0 0.0
2016-May-28 16:28N 09°23' W 079°56'0 0.0
2016-May-28 15:33N 09°23' W 079°56'3 2.9
2016-May-28 14:33N 09°25' W 079°55'2 2.3
2016-May-28 13:34N 09°25' W 079°57'1 1.0
2016-May-28 12:33N 09°24' W 079°58'0 0.0
2016-May-28 11:30N 09°24' W 079°58'0 0.0
2016-May-28 10:33N 09°24' W 079°58'0 0.0
2016-May-28 09:33N 09°24' W 079°58'0 0.0
2016-May-28 08:31N 09°24' W 079°58'0 0.0
2016-May-28 07:33N 09°24' W 079°58'0 0.0
2016-May-28 06:31N 09°24' W 079°58'0 0.0
2016-May-28 05:30N 09°24' W 079°58'0 0.0
2016-May-28 04:33N 09°24' W 079°58'0 0.0
2016-May-28 03:31N 09°24' W 079°58'0 0.0
2016-May-28 02:33N 09°24' W 079°58'0 0.0
2016-May-28 01:30N 09°24' W 079°58'0 0.0
2016-May-28 00:24N 09°24' W 079°58'0 0.0
2016-May-27 23:33N 09°24' W 079°58'0 0.0
2016-May-27 22:33N 09°24' W 079°58'0 0.0
2016-May-27 21:31N 09°24' W 079°58'0 0.0
2016-May-27 20:33N 09°24' W 079°58'0 0.1
2016-May-27 19:27N 09°24' W 079°58'0 0.0
2016-May-27 18:33N 09°24' W 079°58'0 0.0
2016-May-27 17:33N 09°24' W 079°58'0 0.0
2016-May-27 16:30N 09°24' W 079°58'0 0.1
2016-May-27 15:33N 09°24' W 079°58'0 0.0
2016-May-27 14:33N 09°24' W 079°58'0 0.0
2016-May-27 13:31N 09°24' W 079°58'0 0.0
2016-May-27 12:33N 09°24' W 079°58'0 0.0
2016-May-27 11:33N 09°24' W 079°58'0 0.0
2016-May-27 10:33N 09°24' W 079°58'0 0.0
2016-May-27 09:27N 09°24' W 079°58'0 0.0
2016-May-27 08:33N 09°24' W 079°58'0 0.0
2016-May-27 07:30N 09°24' W 079°58'0 0.0
2016-May-27 06:27N 09°24' W 079°58'0 0.0
2016-May-27 05:33N 09°24' W 079°58'0 0.0
2016-May-27 04:33N 09°24' W 079°58'0 0.0
2016-May-27 03:33N 09°24' W 079°58'0 0.1
2016-May-27 02:33N 09°24' W 079°58'0 0.1
2016-May-27 01:28N 09°24' W 079°58'0 0.0
2016-May-27 00:33N 09°24' W 079°58'1 1.2
2016-May-26 23:34N 09°25' W 079°58'6 6.0
2016-May-26 22:33N 09°31' W 079°59'1312.9
2016-May-26 21:33N 09°43' W 080°05'  
2016-May-22 21:33N 28°53' W 093°27'3912.6
2016-May-22 18:28N 29°30' W 093°41'1412.0
2016-May-22 17:16N 29°41' W 093°50'9 8.6
2016-May-22 16:15N 29°48' W 093°57'5 6.8
2016-May-22 15:29N 29°53' W 093°55'6 6.6
2016-May-22 14:33N 29°58' W 093°51'6 5.8
2016-May-22 13:33N 30°01' W 093°57'2 2.0
2016-May-22 12:33N 30°01' W 093°60'  

Dump ship's entire track history